sensor_id;sensor_type;location;lat;lon;timestamp;P1;durP1;ratioP1;P2;durP2;ratioP2
13102;SDS011;52970;46.752;17.108;2023-02-13T00:00:22;23.53;;;14.40;;
13102;SDS011;52970;46.752;17.108;2023-02-13T00:02:48;21.52;;;13.50;;
13102;SDS011;52970;46.752;17.108;2023-02-13T00:05:13;19.20;;;12.93;;
13102;SDS011;52970;46.752;17.108;2023-02-13T00:07:38;18.37;;;13.03;;
13102;SDS011;52970;46.752;17.108;2023-02-13T00:10:04;21.30;;;13.47;;
13102;SDS011;52970;46.752;17.108;2023-02-13T00:12:29;19.90;;;13.20;;
13102;SDS011;52970;46.752;17.108;2023-02-13T00:14:54;18.30;;;12.43;;
13102;SDS011;52970;46.752;17.108;2023-02-13T00:17:20;21.90;;;13.77;;
13102;SDS011;52970;46.752;17.108;2023-02-13T00:19:45;18.63;;;12.57;;
13102;SDS011;52970;46.752;17.108;2023-02-13T00:22:10;20.33;;;13.57;;
13102;SDS011;52970;46.752;17.108;2023-02-13T00:24:36;24.97;;;15.60;;
13102;SDS011;52970;46.752;17.108;2023-02-13T00:27:01;20.83;;;14.27;;
13102;SDS011;52970;46.752;17.108;2023-02-13T00:29:26;27.17;;;16.20;;
13102;SDS011;52970;46.752;17.108;2023-02-13T00:31:51;29.00;;;16.30;;
13102;SDS011;52970;46.752;17.108;2023-02-13T00:34:17;26.03;;;16.10;;
13102;SDS011;52970;46.752;17.108;2023-02-13T00:36:42;22.83;;;15.23;;
13102;SDS011;52970;46.752;17.108;2023-02-13T00:39:09;25.90;;;15.23;;
13102;SDS011;52970;46.752;17.108;2023-02-13T00:41:35;22.83;;;14.98;;
13102;SDS011;52970;46.752;17.108;2023-02-13T00:44:00;23.67;;;13.87;;
13102;SDS011;52970;46.752;17.108;2023-02-13T00:46:25;20.90;;;13.93;;
13102;SDS011;52970;46.752;17.108;2023-02-13T00:48:50;23.00;;;14.13;;
13102;SDS011;52970;46.752;17.108;2023-02-13T00:51:16;20.93;;;13.73;;
13102;SDS011;52970;46.752;17.108;2023-02-13T00:53:41;21.07;;;13.60;;
13102;SDS011;52970;46.752;17.108;2023-02-13T00:56:07;19.70;;;13.43;;
13102;SDS011;52970;46.752;17.108;2023-02-13T00:58:32;22.13;;;13.23;;
13102;SDS011;52970;46.752;17.108;2023-02-13T01:00:58;17.77;;;13.00;;
13102;SDS011;52970;46.752;17.108;2023-02-13T01:03:23;17.60;;;13.30;;
13102;SDS011;52970;46.752;17.108;2023-02-13T01:05:49;17.77;;;12.77;;
13102;SDS011;52970;46.752;17.108;2023-02-13T01:08:14;18.30;;;13.17;;
13102;SDS011;52970;46.752;17.108;2023-02-13T01:10:40;19.63;;;13.80;;
13102;SDS011;52970;46.752;17.108;2023-02-13T01:13:05;21.13;;;13.93;;
13102;SDS011;52970;46.752;17.108;2023-02-13T01:15:31;21.53;;;14.60;;
13102;SDS011;52970;46.752;17.108;2023-02-13T01:17:57;20.43;;;14.00;;
13102;SDS011;52970;46.752;17.108;2023-02-13T01:20:22;20.60;;;14.27;;
13102;SDS011;52970;46.752;17.108;2023-02-13T01:22:48;22.93;;;14.23;;
13102;SDS011;52970;46.752;17.108;2023-02-13T01:25:13;23.93;;;14.27;;
13102;SDS011;52970;46.752;17.108;2023-02-13T01:27:39;17.20;;;13.57;;
13102;SDS011;52970;46.752;17.108;2023-02-13T01:30:05;20.80;;;14.80;;
13102;SDS011;52970;46.752;17.108;2023-02-13T01:32:34;21.57;;;14.50;;
13102;SDS011;52970;46.752;17.108;2023-02-13T01:35:00;22.40;;;14.60;;
13102;SDS011;52970;46.752;17.108;2023-02-13T01:37:25;20.20;;;14.03;;
13102;SDS011;52970;46.752;17.108;2023-02-13T01:39:50;20.83;;;14.47;;
13102;SDS011;52970;46.752;17.108;2023-02-13T01:42:23;17.47;;;13.03;;
13102;SDS011;52970;46.752;17.108;2023-02-13T01:44:50;20.57;;;13.80;;
13102;SDS011;52970;46.752;17.108;2023-02-13T01:50:21;20.33;;;14.23;;
13102;SDS011;52970;46.752;17.108;2023-02-13T01:52:57;24.20;;;15.20;;
13102;SDS011;52970;46.752;17.108;2023-02-13T01:55:23;22.33;;;14.57;;
13102;SDS011;52970;46.752;17.108;2023-02-13T01:57:52;23.50;;;15.40;;
13102;SDS011;52970;46.752;17.108;2023-02-13T02:00:18;24.20;;;14.63;;
13102;SDS011;52970;46.752;17.108;2023-02-13T02:02:49;19.70;;;13.80;;
13102;SDS011;52970;46.752;17.108;2023-02-13T02:05:15;20.00;;;13.63;;
13102;SDS011;52970;46.752;17.108;2023-02-13T02:07:41;22.43;;;14.97;;
13102;SDS011;52970;46.752;17.108;2023-02-13T02:10:10;22.17;;;15.10;;
13102;SDS011;52970;46.752;17.108;2023-02-13T02:12:46;23.43;;;15.50;;
13102;SDS011;52970;46.752;17.108;2023-02-13T02:15:13;22.53;;;15.27;;
13102;SDS011;52970;46.752;17.108;2023-02-13T02:17:39;23.80;;;14.80;;
13102;SDS011;52970;46.752;17.108;2023-02-13T02:22:49;17.27;;;11.93;;
13102;SDS011;52970;46.752;17.108;2023-02-13T02:33:41;16.43;;;10.97;;
13102;SDS011;52970;46.752;17.108;2023-02-13T02:36:13;15.77;;;10.90;;
13102;SDS011;52970;46.752;17.108;2023-02-13T02:46:54;17.80;;;12.57;;
13102;SDS011;52970;46.752;17.108;2023-02-13T02:49:40;19.40;;;12.43;;
13102;SDS011;52970;46.752;17.108;2023-02-13T02:55:16;16.27;;;11.77;;
13102;SDS011;52970;46.752;17.108;2023-02-13T02:57:46;15.80;;;11.87;;
13102;SDS011;52970;46.752;17.108;2023-02-13T03:00:30;18.13;;;11.53;;
13102;SDS011;52970;46.752;17.108;2023-02-13T03:03:19;15.63;;;12.07;;
13102;SDS011;52970;46.752;17.108;2023-02-13T03:06:08;17.50;;;11.43;;
13102;SDS011;52970;46.752;17.108;2023-02-13T03:08:46;17.00;;;12.00;;
13102;SDS011;52970;46.752;17.108;2023-02-13T03:11:33;17.97;;;11.70;;
13102;SDS011;52970;46.752;17.108;2023-02-13T03:14:19;19.20;;;12.20;;
13102;SDS011;52970;46.752;17.108;2023-02-13T03:16:44;18.10;;;12.20;;
13102;SDS011;52970;46.752;17.108;2023-02-13T03:22:49;15.77;;;11.43;;
13102;SDS011;52970;46.752;17.108;2023-02-13T03:25:20;15.40;;;11.23;;
13102;SDS011;52970;46.752;17.108;2023-02-13T03:28:03;17.87;;;12.27;;
13102;SDS011;52970;46.752;17.108;2023-02-13T03:33:33;17.20;;;12.57;;
13102;SDS011;52970;46.752;17.108;2023-02-13T03:36:14;18.33;;;12.67;;
13102;SDS011;52970;46.752;17.108;2023-02-13T03:39:11;19.73;;;12.60;;
13102;SDS011;52970;46.752;17.108;2023-02-13T03:41:40;15.57;;;11.53;;
13102;SDS011;52970;46.752;17.108;2023-02-13T03:44:15;17.53;;;11.23;;
13102;SDS011;52970;46.752;17.108;2023-02-13T03:46:44;18.03;;;12.77;;
13102;SDS011;52970;46.752;17.108;2023-02-13T03:49:11;20.03;;;12.40;;
13102;SDS011;52970;46.752;17.108;2023-02-13T03:51:59;16.97;;;12.07;;
13102;SDS011;52970;46.752;17.108;2023-02-13T03:54:29;42.47;;;17.80;;
13102;SDS011;52970;46.752;17.108;2023-02-13T03:57:14;67.80;;;25.73;;
13102;SDS011;52970;46.752;17.108;2023-02-13T04:00:01;19.90;;;12.67;;
13102;SDS011;52970;46.752;17.108;2023-02-13T04:02:29;23.50;;;13.33;;
13102;SDS011;52970;46.752;17.108;2023-02-13T04:04:58;36.67;;;16.33;;
13102;SDS011;52970;46.752;17.108;2023-02-13T04:07:28;35.33;;;18.60;;
13102;SDS011;52970;46.752;17.108;2023-02-13T04:10:15;39.40;;;19.70;;
13102;SDS011;52970;46.752;17.108;2023-02-13T04:15:18;37.33;;;18.50;;
13102;SDS011;52970;46.752;17.108;2023-02-13T04:17:46;37.97;;;18.77;;
13102;SDS011;52970;46.752;17.108;2023-02-13T04:20:13;41.63;;;20.20;;
13102;SDS011;52970;46.752;17.108;2023-02-13T04:22:45;76.37;;;31.23;;
13102;SDS011;52970;46.752;17.108;2023-02-13T04:25:10;86.77;;;34.27;;
13102;SDS011;52970;46.752;17.108;2023-02-13T04:27:36;82.63;;;33.60;;
13102;SDS011;52970;46.752;17.108;2023-02-13T04:30:02;60.80;;;26.37;;
13102;SDS011;52970;46.752;17.108;2023-02-13T04:32:27;50.63;;;23.07;;
13102;SDS011;52970;46.752;17.108;2023-02-13T04:34:53;50.70;;;21.90;;
13102;SDS011;52970;46.752;17.108;2023-02-13T04:37:18;43.43;;;22.53;;
13102;SDS011;52970;46.752;17.108;2023-02-13T04:39:43;52.70;;;25.70;;
13102;SDS011;52970;46.752;17.108;2023-02-13T04:42:09;51.23;;;26.20;;
13102;SDS011;52970;46.752;17.108;2023-02-13T04:44:34;38.40;;;20.87;;
13102;SDS011;52970;46.752;17.108;2023-02-13T04:46:59;36.17;;;19.13;;
13102;SDS011;52970;46.752;17.108;2023-02-13T04:49:24;32.03;;;19.63;;
13102;SDS011;52970;46.752;17.108;2023-02-13T04:51:50;27.10;;;17.37;;
13102;SDS011;52970;46.752;17.108;2023-02-13T04:54:15;23.07;;;14.47;;
13102;SDS011;52970;46.752;17.108;2023-02-13T04:56:40;25.47;;;16.20;;
13102;SDS011;52970;46.752;17.108;2023-02-13T04:59:05;19.83;;;13.63;;
13102;SDS011;52970;46.752;17.108;2023-02-13T05:01:31;18.37;;;12.87;;
13102;SDS011;52970;46.752;17.108;2023-02-13T05:03:56;19.00;;;12.90;;
13102;SDS011;52970;46.752;17.108;2023-02-13T05:06:21;17.87;;;13.00;;
13102;SDS011;52970;46.752;17.108;2023-02-13T05:08:47;16.97;;;11.80;;
13102;SDS011;52970;46.752;17.108;2023-02-13T05:11:12;15.50;;;11.67;;
13102;SDS011;52970;46.752;17.108;2023-02-13T05:13:37;16.33;;;11.57;;
13102;SDS011;52970;46.752;17.108;2023-02-13T05:16:02;17.40;;;12.07;;
13102;SDS011;52970;46.752;17.108;2023-02-13T05:18:28;18.27;;;13.10;;
13102;SDS011;52970;46.752;17.108;2023-02-13T05:20:53;26.03;;;16.13;;
13102;SDS011;52970;46.752;17.108;2023-02-13T05:23:37;61.90;;;50.07;;
13102;SDS011;52970;46.752;17.108;2023-02-13T05:26:02;39.53;;;31.83;;
13102;SDS011;52970;46.752;17.108;2023-02-13T05:28:27;36.33;;;29.87;;
13102;SDS011;52970;46.752;17.108;2023-02-13T05:31:11;30.27;;;21.37;;
13102;SDS011;52970;46.752;17.108;2023-02-13T05:33:37;25.13;;;19.77;;
13102;SDS011;52970;46.752;17.108;2023-02-13T05:36:02;21.20;;;17.77;;
13102;SDS011;52970;46.752;17.108;2023-02-13T05:38:27;20.07;;;14.93;;
13102;SDS011;52970;46.752;17.108;2023-02-13T05:40:53;18.33;;;12.83;;
13102;SDS011;52970;46.752;17.108;2023-02-13T05:43:18;16.20;;;11.20;;
13102;SDS011;52970;46.752;17.108;2023-02-13T05:45:43;17.73;;;11.50;;
13102;SDS011;52970;46.752;17.108;2023-02-13T05:48:09;16.53;;;11.27;;
13102;SDS011;52970;46.752;17.108;2023-02-13T05:50:34;21.37;;;12.67;;
13102;SDS011;52970;46.752;17.108;2023-02-13T05:52:59;23.60;;;14.27;;
13102;SDS011;52970;46.752;17.108;2023-02-13T05:55:24;23.93;;;14.60;;
13102;SDS011;52970;46.752;17.108;2023-02-13T05:57:54;21.33;;;12.97;;
13102;SDS011;52970;46.752;17.108;2023-02-13T06:00:19;22.60;;;13.57;;
13102;SDS011;52970;46.752;17.108;2023-02-13T06:02:45;22.37;;;13.27;;
13102;SDS011;52970;46.752;17.108;2023-02-13T06:05:10;23.33;;;13.57;;
13102;SDS011;52970;46.752;17.108;2023-02-13T06:07:35;21.53;;;13.60;;
13102;SDS011;52970;46.752;17.108;2023-02-13T06:10:01;22.20;;;13.20;;
13102;SDS011;52970;46.752;17.108;2023-02-13T06:12:26;20.33;;;12.70;;
13102;SDS011;52970;46.752;17.108;2023-02-13T06:14:51;19.93;;;12.63;;
13102;SDS011;52970;46.752;17.108;2023-02-13T06:17:16;20.03;;;10.73;;
13102;SDS011;52970;46.752;17.108;2023-02-13T06:19:42;15.30;;;10.47;;
13102;SDS011;52970;46.752;17.108;2023-02-13T06:22:07;16.67;;;10.13;;
13102;SDS011;52970;46.752;17.108;2023-02-13T06:24:32;12.43;;;9.37;;
13102;SDS011;52970;46.752;17.108;2023-02-13T06:26:57;14.87;;;11.77;;
13102;SDS011;52970;46.752;17.108;2023-02-13T06:29:23;15.40;;;10.97;;
13102;SDS011;52970;46.752;17.108;2023-02-13T06:31:48;19.87;;;11.33;;
13102;SDS011;52970;46.752;17.108;2023-02-13T06:34:13;20.30;;;12.80;;
13102;SDS011;52970;46.752;17.108;2023-02-13T06:36:38;19.67;;;12.00;;
13102;SDS011;52970;46.752;17.108;2023-02-13T06:39:05;17.93;;;11.73;;
13102;SDS011;52970;46.752;17.108;2023-02-13T06:41:31;17.60;;;12.20;;
13102;SDS011;52970;46.752;17.108;2023-02-13T06:43:56;18.67;;;12.63;;
13102;SDS011;52970;46.752;17.108;2023-02-13T06:46:21;20.20;;;12.90;;
13102;SDS011;52970;46.752;17.108;2023-02-13T06:48:46;20.43;;;13.07;;
13102;SDS011;52970;46.752;17.108;2023-02-13T06:51:12;18.80;;;12.70;;
13102;SDS011;52970;46.752;17.108;2023-02-13T06:53:37;21.13;;;14.07;;
13102;SDS011;52970;46.752;17.108;2023-02-13T06:56:03;19.53;;;14.10;;
13102;SDS011;52970;46.752;17.108;2023-02-13T06:58:30;19.43;;;13.83;;
13102;SDS011;52970;46.752;17.108;2023-02-13T07:00:56;20.70;;;13.47;;
13102;SDS011;52970;46.752;17.108;2023-02-13T07:03:21;20.07;;;13.10;;
13102;SDS011;52970;46.752;17.108;2023-02-13T07:05:46;19.17;;;13.47;;
13102;SDS011;52970;46.752;17.108;2023-02-13T07:08:12;18.90;;;13.43;;
13102;SDS011;52970;46.752;17.108;2023-02-13T07:10:37;17.73;;;12.77;;
13102;SDS011;52970;46.752;17.108;2023-02-13T07:13:03;21.17;;;13.47;;
13102;SDS011;52970;46.752;17.108;2023-02-13T07:15:28;20.50;;;14.00;;
13102;SDS011;52970;46.752;17.108;2023-02-13T07:17:54;19.57;;;13.47;;
13102;SDS011;52970;46.752;17.108;2023-02-13T07:20:20;22.03;;;13.57;;
13102;SDS011;52970;46.752;17.108;2023-02-13T07:22:45;17.93;;;13.37;;
13102;SDS011;52970;46.752;17.108;2023-02-13T07:25:10;18.87;;;11.83;;
13102;SDS011;52970;46.752;17.108;2023-02-13T07:27:35;19.17;;;12.67;;
13102;SDS011;52970;46.752;17.108;2023-02-13T07:30:01;21.33;;;13.47;;
13102;SDS011;52970;46.752;17.108;2023-02-13T07:32:26;20.17;;;13.63;;
13102;SDS011;52970;46.752;17.108;2023-02-13T07:34:52;20.80;;;14.87;;
13102;SDS011;52970;46.752;17.108;2023-02-13T07:37:17;18.67;;;12.97;;
13102;SDS011;52970;46.752;17.108;2023-02-13T07:39:42;18.53;;;12.73;;
13102;SDS011;52970;46.752;17.108;2023-02-13T07:42:07;17.97;;;12.13;;
13102;SDS011;52970;46.752;17.108;2023-02-13T07:44:33;18.17;;;12.20;;
13102;SDS011;52970;46.752;17.108;2023-02-13T07:46:58;18.97;;;13.00;;
13102;SDS011;52970;46.752;17.108;2023-02-13T07:49:25;16.67;;;12.47;;
13102;SDS011;52970;46.752;17.108;2023-02-13T07:51:50;18.50;;;12.93;;
13102;SDS011;52970;46.752;17.108;2023-02-13T07:54:15;16.73;;;12.30;;
13102;SDS011;52970;46.752;17.108;2023-02-13T07:56:41;18.53;;;11.97;;
13102;SDS011;52970;46.752;17.108;2023-02-13T07:59:06;19.87;;;14.00;;
13102;SDS011;52970;46.752;17.108;2023-02-13T08:01:31;19.97;;;13.53;;
13102;SDS011;52970;46.752;17.108;2023-02-13T08:03:57;17.43;;;12.07;;
13102;SDS011;52970;46.752;17.108;2023-02-13T08:06:22;20.10;;;12.30;;
13102;SDS011;52970;46.752;17.108;2023-02-13T08:08:47;20.90;;;14.47;;
13102;SDS011;52970;46.752;17.108;2023-02-13T08:11:23;16.77;;;12.50;;
13102;SDS011;52970;46.752;17.108;2023-02-13T08:14:07;19.70;;;14.10;;
13102;SDS011;52970;46.752;17.108;2023-02-13T08:16:33;24.23;;;13.30;;
13102;SDS011;52970;46.752;17.108;2023-02-13T08:18:58;13.77;;;11.30;;
13102;SDS011;52970;46.752;17.108;2023-02-13T08:21:23;14.00;;;11.00;;
13102;SDS011;52970;46.752;17.108;2023-02-13T08:23:49;16.40;;;11.73;;
13102;SDS011;52970;46.752;17.108;2023-02-13T08:26:16;17.80;;;13.00;;
13102;SDS011;52970;46.752;17.108;2023-02-13T08:28:41;19.47;;;12.60;;
13102;SDS011;52970;46.752;17.108;2023-02-13T08:31:10;21.20;;;12.87;;
13102;SDS011;52970;46.752;17.108;2023-02-13T08:33:35;15.27;;;11.50;;
13102;SDS011;52970;46.752;17.108;2023-02-13T08:36:04;13.50;;;9.80;;
13102;SDS011;52970;46.752;17.108;2023-02-13T08:38:29;12.30;;;9.60;;
13102;SDS011;52970;46.752;17.108;2023-02-13T08:40:57;12.37;;;9.57;;
13102;SDS011;52970;46.752;17.108;2023-02-13T08:43:23;12.70;;;10.00;;
13102;SDS011;52970;46.752;17.108;2023-02-13T08:45:48;12.50;;;8.57;;
13102;SDS011;52970;46.752;17.108;2023-02-13T08:48:13;11.33;;;8.77;;
13102;SDS011;52970;46.752;17.108;2023-02-13T08:50:39;11.70;;;8.67;;
13102;SDS011;52970;46.752;17.108;2023-02-13T08:53:05;12.63;;;9.03;;
13102;SDS011;52970;46.752;17.108;2023-02-13T08:55:31;13.27;;;8.50;;
13102;SDS011;52970;46.752;17.108;2023-02-13T08:58:02;11.30;;;8.53;;
13102;SDS011;52970;46.752;17.108;2023-02-13T09:00:28;11.30;;;8.83;;
13102;SDS011;52970;46.752;17.108;2023-02-13T09:02:53;11.40;;;8.63;;
13102;SDS011;52970;46.752;17.108;2023-02-13T09:05:19;11.17;;;8.20;;
13102;SDS011;52970;46.752;17.108;2023-02-13T09:07:44;11.32;;;7.22;;
13102;SDS011;52970;46.752;17.108;2023-02-13T09:10:09;10.23;;;7.40;;
13102;SDS011;52970;46.752;17.108;2023-02-13T09:12:35;9.57;;;7.30;;
13102;SDS011;52970;46.752;17.108;2023-02-13T09:15:00;9.98;;;7.40;;
13102;SDS011;52970;46.752;17.108;2023-02-13T09:17:25;12.27;;;6.75;;
13102;SDS011;52970;46.752;17.108;2023-02-13T09:19:51;9.30;;;7.45;;
13102;SDS011;52970;46.752;17.108;2023-02-13T09:22:16;9.02;;;7.60;;
13102;SDS011;52970;46.752;17.108;2023-02-13T09:24:41;9.27;;;6.82;;
13102;SDS011;52970;46.752;17.108;2023-02-13T09:27:06;9.32;;;7.63;;
13102;SDS011;52970;46.752;17.108;2023-02-13T09:29:32;10.20;;;7.35;;
13102;SDS011;52970;46.752;17.108;2023-02-13T09:31:58;8.32;;;7.38;;
13102;SDS011;52970;46.752;17.108;2023-02-13T09:34:23;13.00;;;8.20;;
13102;SDS011;52970;46.752;17.108;2023-02-13T09:36:52;9.27;;;7.18;;
13102;SDS011;52970;46.752;17.108;2023-02-13T09:39:17;10.02;;;7.57;;
13102;SDS011;52970;46.752;17.108;2023-02-13T09:41:43;10.75;;;7.20;;
13102;SDS011;52970;46.752;17.108;2023-02-13T09:46:57;11.07;;;7.25;;
13102;SDS011;52970;46.752;17.108;2023-02-13T09:49:23;8.77;;;6.82;;
13102;SDS011;52970;46.752;17.108;2023-02-13T09:51:52;9.82;;;7.72;;
13102;SDS011;52970;46.752;17.108;2023-02-13T09:54:19;11.30;;;7.05;;
13102;SDS011;52970;46.752;17.108;2023-02-13T09:56:55;9.38;;;7.45;;
13102;SDS011;52970;46.752;17.108;2023-02-13T10:04:47;11.13;;;7.20;;
13102;SDS011;52970;46.752;17.108;2023-02-13T10:07:30;8.40;;;7.05;;
13102;SDS011;52970;46.752;17.108;2023-02-13T10:18:02;15.23;;;9.02;;
13102;SDS011;52970;46.752;17.108;2023-02-13T10:28:29;9.40;;;6.47;;
13102;SDS011;52970;46.752;17.108;2023-02-13T10:30:55;10.45;;;6.40;;
13102;SDS011;52970;46.752;17.108;2023-02-13T10:33:25;12.93;;;6.53;;
13102;SDS011;52970;46.752;17.108;2023-02-13T10:38:20;10.32;;;6.90;;
13102;SDS011;52970;46.752;17.108;2023-02-13T10:41:36;9.70;;;6.25;;
13102;SDS011;52970;46.752;17.108;2023-02-13T10:43:38;9.73;;;6.07;;
13102;SDS011;52970;46.752;17.108;2023-02-13T10:51:38;7.75;;;6.22;;
13102;SDS011;52970;46.752;17.108;2023-02-13T10:54:16;6.95;;;5.45;;
13102;SDS011;52970;46.752;17.108;2023-02-13T11:01:52;7.43;;;6.47;;
13102;SDS011;52970;46.752;17.108;2023-02-13T11:04:18;8.07;;;5.80;;
13102;SDS011;52970;46.752;17.108;2023-02-13T11:07:03;9.73;;;6.43;;
13102;SDS011;52970;46.752;17.108;2023-02-13T11:09:29;9.73;;;7.35;;
13102;SDS011;52970;46.752;17.108;2023-02-13T11:11:58;9.65;;;7.35;;
13102;SDS011;52970;46.752;17.108;2023-02-13T11:14:24;10.05;;;6.75;;
13102;SDS011;52970;46.752;17.108;2023-02-13T11:16:51;9.27;;;6.95;;
13102;SDS011;52970;46.752;17.108;2023-02-13T11:19:18;9.40;;;6.78;;
13102;SDS011;52970;46.752;17.108;2023-02-13T11:21:46;9.82;;;7.47;;
13102;SDS011;52970;46.752;17.108;2023-02-13T11:24:19;11.75;;;8.13;;
13102;SDS011;52970;46.752;17.108;2023-02-13T11:26:48;9.60;;;7.35;;
13102;SDS011;52970;46.752;17.108;2023-02-13T11:29:15;9.13;;;7.00;;
13102;SDS011;52970;46.752;17.108;2023-02-13T11:31:41;12.18;;;8.45;;
13102;SDS011;52970;46.752;17.108;2023-02-13T11:34:25;10.82;;;8.45;;
13102;SDS011;52970;46.752;17.108;2023-02-13T11:36:51;10.57;;;8.45;;
13102;SDS011;52970;46.752;17.108;2023-02-13T11:39:18;10.50;;;7.80;;
13102;SDS011;52970;46.752;17.108;2023-02-13T11:41:44;10.18;;;7.70;;
13102;SDS011;52970;46.752;17.108;2023-02-13T11:44:21;15.18;;;9.82;;
13102;SDS011;52970;46.752;17.108;2023-02-13T11:46:48;8.68;;;7.00;;
13102;SDS011;52970;46.752;17.108;2023-02-13T11:49:21;11.70;;;7.80;;
13102;SDS011;52970;46.752;17.108;2023-02-13T11:51:48;15.10;;;10.23;;
13102;SDS011;52970;46.752;17.108;2023-02-13T11:54:33;11.00;;;7.95;;
13102;SDS011;52970;46.752;17.108;2023-02-13T11:57:19;18.00;;;11.98;;
13102;SDS011;52970;46.752;17.108;2023-02-13T11:59:46;17.10;;;11.25;;
13102;SDS011;52970;46.752;17.108;2023-02-13T12:02:12;13.95;;;9.73;;
13102;SDS011;52970;46.752;17.108;2023-02-13T12:04:38;13.13;;;9.10;;
13102;SDS011;52970;46.752;17.108;2023-02-13T12:07:25;16.98;;;11.73;;
13102;SDS011;52970;46.752;17.108;2023-02-13T12:09:52;16.88;;;10.90;;
13102;SDS011;52970;46.752;17.108;2023-02-13T12:12:37;20.50;;;13.63;;
13102;SDS011;52970;46.752;17.108;2023-02-13T12:15:15;17.42;;;13.38;;
13102;SDS011;52970;46.752;17.108;2023-02-13T12:17:42;13.75;;;10.70;;
13102;SDS011;52970;46.752;17.108;2023-02-13T12:20:12;11.43;;;9.23;;
13102;SDS011;52970;46.752;17.108;2023-02-13T12:22:41;9.45;;;8.40;;
13102;SDS011;52970;46.752;17.108;2023-02-13T12:27:51;11.10;;;8.68;;
13102;SDS011;52970;46.752;17.108;2023-02-13T12:43:39;12.05;;;8.88;;
13102;SDS011;52970;46.752;17.108;2023-02-13T12:51:15;14.63;;;8.65;;
13102;SDS011;52970;46.752;17.108;2023-02-13T13:09:18;13.60;;;8.80;;
13102;SDS011;52970;46.752;17.108;2023-02-13T13:17:07;8.65;;;7.18;;
13102;SDS011;52970;46.752;17.108;2023-02-13T13:22:52;7.50;;;6.38;;
13102;SDS011;52970;46.752;17.108;2023-02-13T13:27:57;8.35;;;6.90;;
13102;SDS011;52970;46.752;17.108;2023-02-13T13:33:12;9.43;;;6.43;;
13102;SDS011;52970;46.752;17.108;2023-02-13T13:35:34;7.40;;;6.15;;
13102;SDS011;52970;46.752;17.108;2023-02-13T13:38:04;8.57;;;7.68;;
13102;SDS011;52970;46.752;17.108;2023-02-13T13:43:01;9.60;;;7.43;;
13102;SDS011;52970;46.752;17.108;2023-02-13T13:45:33;11.70;;;8.52;;
13102;SDS011;52970;46.752;17.108;2023-02-13T13:50:45;12.85;;;8.80;;
13102;SDS011;52970;46.752;17.108;2023-02-13T13:53:14;8.90;;;7.25;;
13102;SDS011;52970;46.752;17.108;2023-02-13T14:03:42;42.13;;;27.00;;
13102;SDS011;52970;46.752;17.108;2023-02-13T14:06:09;22.35;;;13.48;;
13102;SDS011;52970;46.752;17.108;2023-02-13T14:17:08;11.57;;;8.35;;
13102;SDS011;52970;46.752;17.108;2023-02-13T14:19:37;13.82;;;9.00;;
13102;SDS011;52970;46.752;17.108;2023-02-13T14:24:41;11.80;;;8.63;;
13102;SDS011;52970;46.752;17.108;2023-02-13T14:27:14;14.00;;;9.20;;
13102;SDS011;52970;46.752;17.108;2023-02-13T14:29:47;11.20;;;7.93;;
13102;SDS011;52970;46.752;17.108;2023-02-13T14:32:14;21.23;;;13.48;;
13102;SDS011;52970;46.752;17.108;2023-02-13T14:34:40;25.30;;;16.70;;
13102;SDS011;52970;46.752;17.108;2023-02-13T14:39:34;12.45;;;8.75;;
13102;SDS011;52970;46.752;17.108;2023-02-13T14:42:00;11.90;;;8.13;;
13102;SDS011;52970;46.752;17.108;2023-02-13T14:44:33;21.90;;;12.30;;
13102;SDS011;52970;46.752;17.108;2023-02-13T14:47:00;12.77;;;9.07;;
13102;SDS011;52970;46.752;17.108;2023-02-13T14:49:27;13.70;;;9.38;;
13102;SDS011;52970;46.752;17.108;2023-02-13T14:51:57;22.38;;;15.23;;
13102;SDS011;52970;46.752;17.108;2023-02-13T14:54:28;30.25;;;19.02;;
13102;SDS011;52970;46.752;17.108;2023-02-13T14:57:03;18.90;;;12.07;;
13102;SDS011;52970;46.752;17.108;2023-02-13T14:59:29;20.10;;;14.27;;
13102;SDS011;52970;46.752;17.108;2023-02-13T15:01:59;29.15;;;19.27;;
13102;SDS011;52970;46.752;17.108;2023-02-13T15:04:30;24.25;;;17.60;;
13102;SDS011;52970;46.752;17.108;2023-02-13T15:06:59;36.50;;;27.00;;
13102;SDS011;52970;46.752;17.108;2023-02-13T15:09:29;22.90;;;17.55;;
13102;SDS011;52970;46.752;17.108;2023-02-13T15:11:56;22.70;;;16.80;;
13102;SDS011;52970;46.752;17.108;2023-02-13T15:14:34;23.52;;;18.33;;
13102;SDS011;52970;46.752;17.108;2023-02-13T15:17:07;27.38;;;21.15;;
13102;SDS011;52970;46.752;17.108;2023-02-13T15:19:36;30.23;;;21.67;;
13102;SDS011;52970;46.752;17.108;2023-02-13T15:22:03;22.73;;;16.42;;
13102;SDS011;52970;46.752;17.108;2023-02-13T15:24:33;27.70;;;18.02;;
13102;SDS011;52970;46.752;17.108;2023-02-13T15:27:03;27.13;;;19.58;;
13102;SDS011;52970;46.752;17.108;2023-02-13T15:29:29;26.70;;;18.70;;
13102;SDS011;52970;46.752;17.108;2023-02-13T15:31:55;26.63;;;19.63;;
13102;SDS011;52970;46.752;17.108;2023-02-13T15:34:22;28.00;;;19.90;;
13102;SDS011;52970;46.752;17.108;2023-02-13T15:36:48;56.88;;;33.10;;
13102;SDS011;52970;46.752;17.108;2023-02-13T15:39:16;56.63;;;37.55;;
13102;SDS011;52970;46.752;17.108;2023-02-13T15:41:46;40.58;;;30.33;;
13102;SDS011;52970;46.752;17.108;2023-02-13T15:44:18;24.85;;;18.38;;
13102;SDS011;52970;46.752;17.108;2023-02-13T15:46:48;30.33;;;23.40;;
13102;SDS011;52970;46.752;17.108;2023-02-13T15:49:16;30.88;;;23.52;;
13102;SDS011;52970;46.752;17.108;2023-02-13T15:51:42;20.58;;;13.10;;
13102;SDS011;52970;46.752;17.108;2023-02-13T15:54:22;35.85;;;17.48;;
13102;SDS011;52970;46.752;17.108;2023-02-13T15:56:48;19.15;;;12.68;;
13102;SDS011;52970;46.752;17.108;2023-02-13T15:59:14;11.70;;;10.43;;
13102;SDS011;52970;46.752;17.108;2023-02-13T16:01:40;15.95;;;10.77;;
13102;SDS011;52970;46.752;17.108;2023-02-13T16:04:08;13.77;;;10.15;;
13102;SDS011;52970;46.752;17.108;2023-02-13T16:06:34;12.73;;;9.02;;
13102;SDS011;52970;46.752;17.108;2023-02-13T16:09:00;12.20;;;8.95;;
13102;SDS011;52970;46.752;17.108;2023-02-13T16:11:29;10.48;;;8.65;;
13102;SDS011;52970;46.752;17.108;2023-02-13T16:14:04;12.18;;;8.85;;
13102;SDS011;52970;46.752;17.108;2023-02-13T16:16:32;12.43;;;9.23;;
13102;SDS011;52970;46.752;17.108;2023-02-13T16:18:58;13.25;;;8.27;;
13102;SDS011;52970;46.752;17.108;2023-02-13T16:21:26;14.48;;;8.32;;
13102;SDS011;52970;46.752;17.108;2023-02-13T16:23:59;12.77;;;8.35;;
13102;SDS011;52970;46.752;17.108;2023-02-13T16:26:26;10.93;;;8.02;;
13102;SDS011;52970;46.752;17.108;2023-02-13T16:28:51;14.80;;;7.78;;
13102;SDS011;52970;46.752;17.108;2023-02-13T16:31:17;13.23;;;8.13;;
13102;SDS011;52970;46.752;17.108;2023-02-13T16:33:43;13.05;;;8.32;;
13102;SDS011;52970;46.752;17.108;2023-02-13T16:54:04;17.25;;;8.82;;
13102;SDS011;52970;46.752;17.108;2023-02-13T17:01:43;10.70;;;8.20;;
13102;SDS011;52970;46.752;17.108;2023-02-13T17:04:29;12.82;;;9.13;;
13102;SDS011;52970;46.752;17.108;2023-02-13T17:06:54;14.38;;;9.55;;
13102;SDS011;52970;46.752;17.108;2023-02-13T17:09:20;14.20;;;9.35;;
13102;SDS011;52970;46.752;17.108;2023-02-13T17:11:49;14.73;;;9.82;;